createdAt,value
2022-11-12T00:01:01.541Z,102997.44
2022-11-12T00:03:29.253Z,102991.38
2022-11-12T00:05:56.867Z,102988.91
2022-11-12T00:08:24.949Z,102995.06
2022-11-12T00:10:52.920Z,102997.72
2022-11-12T00:13:22.005Z,102992.59
2022-11-12T00:15:49.680Z,102994.19
2022-11-12T00:18:17.379Z,102991.50
2022-11-12T00:20:45.444Z,103002.91
2022-11-12T00:23:13.147Z,102991.50
2022-11-12T00:25:41.155Z,102998.66
2022-11-12T00:28:10.793Z,103011.03
2022-11-12T00:30:41.177Z,102989.31
2022-11-12T00:33:08.957Z,103002.38
2022-11-12T00:35:36.691Z,102994.53
2022-11-12T00:38:04.404Z,103008.69
2022-11-12T00:40:32.139Z,102999.16
2022-11-12T00:42:59.831Z,102998.53
2022-11-12T00:45:27.559Z,103004.66
2022-11-12T00:47:57.504Z,102993.31
2022-11-12T00:50:25.853Z,102998.63
2022-11-12T00:52:53.944Z,102995.09
2022-11-12T00:55:21.612Z,102999.50
2022-11-12T00:57:49.285Z,103004.03
2022-11-12T01:00:17.784Z,102997.91
2022-11-12T01:02:50.709Z,102992.66
2022-11-12T01:05:21.167Z,102995.41
2022-11-12T01:07:54.703Z,102999.84
2022-11-12T01:10:23.676Z,102997.25
2022-11-12T01:12:51.311Z,102992.84
2022-11-12T01:15:19.094Z,102990.16
2022-11-12T01:17:46.792Z,102988.44
2022-11-12T01:20:14.541Z,102990.16
2022-11-12T01:22:43.613Z,102987.56
2022-11-12T01:25:11.281Z,103001.72
2022-11-12T01:27:38.908Z,102993.00
2022-11-12T01:30:07.391Z,102991.34
2022-11-12T01:32:38.302Z,103001.94
2022-11-12T01:35:06.716Z,102981.78
2022-11-12T01:37:34.453Z,102988.78
2022-11-12T01:40:03.717Z,102981.81
2022-11-12T01:42:32.633Z,102992.31
2022-11-12T01:45:00.326Z,102991.56
2022-11-12T01:47:30.066Z,102988.13
2022-11-12T01:50:00.854Z,102985.63
2022-11-12T01:52:32.321Z,102991.69
2022-11-12T01:55:06.799Z,102992.69
2022-11-12T01:57:38.356Z,102999.84
2022-11-12T02:00:10.153Z,103002.56
2022-11-12T02:02:38.259Z,102985.91
2022-11-12T02:05:08.563Z,102988.53
2022-11-12T02:07:37.181Z,102981.50
2022-11-12T02:10:07.932Z,102981.56
2022-11-12T02:12:53.617Z,102980.81
2022-11-12T02:15:21.383Z,102975.63
2022-11-12T02:17:49.196Z,102980.97
2022-11-12T02:20:17.779Z,102972.31
2022-11-12T02:22:47.031Z,102974.13
2022-11-12T02:25:18.731Z,102966.28
2022-11-12T02:27:46.755Z,102971.63
2022-11-12T02:30:14.500Z,102966.34
2022-11-12T02:32:42.299Z,102966.28
2022-11-12T02:35:10.321Z,102973.34
2022-11-12T02:37:37.956Z,102974.25
2022-11-12T02:40:08.994Z,102977.00
2022-11-12T02:42:36.788Z,102978.84
2022-11-12T02:45:05.276Z,102972.84
2022-11-12T02:47:32.969Z,102980.03
2022-11-12T02:50:00.611Z,102973.06
2022-11-12T02:52:28.325Z,102980.16
2022-11-12T02:54:56.065Z,102973.25
2022-11-12T02:57:25.484Z,102976.78
2022-11-12T02:59:53.166Z,102976.78
2022-11-12T03:02:20.933Z,102967.25
2022-11-12T03:04:49.742Z,102966.28
2022-11-12T03:07:17.667Z,102967.25
2022-11-12T03:09:45.357Z,102964.63
2022-11-12T03:12:13.209Z,102967.25
2022-11-12T03:14:42.344Z,102971.66
2022-11-12T03:17:10.182Z,102965.47
2022-11-12T03:19:37.812Z,102967.13
2022-11-12T03:22:05.597Z,102961.91
2022-11-12T03:24:33.255Z,102958.31
2022-11-12T03:27:00.887Z,102957.47
2022-11-12T03:29:28.608Z,102969.66
2022-11-12T03:31:57.663Z,102953.84
2022-11-12T03:34:25.355Z,102958.06
2022-11-12T03:36:53.031Z,102950.97
2022-11-12T03:39:20.752Z,102949.16
2022-11-12T03:41:48.438Z,102954.38
2022-11-12T03:44:16.057Z,102950.88
2022-11-12T03:46:44.532Z,102956.94
2022-11-12T03:49:13.752Z,102952.53
2022-11-12T03:51:41.489Z,102954.31
2022-11-12T03:54:09.240Z,102948.25
2022-11-12T03:56:36.911Z,102950.81
2022-11-12T03:59:05.025Z,102953.50
2022-11-12T04:01:33.001Z,102952.59
2022-11-12T04:04:00.779Z,102951.03
2022-11-12T04:06:47.487Z,102962.41
2022-11-12T04:09:15.484Z,102954.63
2022-11-12T04:11:43.138Z,102964.34
2022-11-12T04:14:09.788Z,102953.84
2022-11-12T04:16:55.160Z,102958.25
2022-11-12T04:19:40.455Z,102950.47
2022-11-12T04:22:11.365Z,102957.56
2022-11-12T04:24:57.866Z,102957.56
2022-11-12T04:27:27.574Z,102959.38
2022-11-12T04:30:13.190Z,102959.38
2022-11-12T04:32:42.549Z,102960.22
2022-11-12T04:35:11.051Z,102955.84
2022-11-12T04:37:46.701Z,102956.75
2022-11-12T04:40:33.501Z,102952.41
2022-11-12T04:43:19.283Z,102959.38
2022-11-12T04:45:49.488Z,102962.91
2022-11-12T04:48:17.818Z,102956.81
2022-11-12T04:50:46.822Z,102940.53
2022-11-12T04:53:16.134Z,102950.78
2022-11-12T04:55:43.753Z,102952.59
2022-11-12T04:58:11.874Z,102944.69
2022-11-12T05:00:39.643Z,102947.44
2022-11-12T05:03:07.353Z,102952.72
2022-11-12T05:05:35.007Z,102952.75
2022-11-12T05:08:03.144Z,102954.63
2022-11-12T05:10:32.623Z,102948.63
2022-11-12T05:13:00.354Z,102939.13
2022-11-12T05:15:28.103Z,102947.00
2022-11-12T05:17:55.778Z,102952.38
2022-11-12T05:20:23.500Z,102952.31
2022-11-12T05:23:05.432Z,102948.03
2022-11-12T05:25:35.326Z,102939.41
2022-11-12T05:28:02.971Z,102940.16
2022-11-12T05:30:30.732Z,102929.69
2022-11-12T05:32:58.372Z,102931.41
2022-11-12T05:35:26.080Z,102932.31
2022-11-12T05:37:53.740Z,102939.41
2022-11-12T05:40:21.517Z,102930.66
2022-11-12T05:42:50.544Z,102926.41
2022-11-12T05:45:18.254Z,102929.00
2022-11-12T05:47:45.883Z,102925.53
2022-11-12T05:50:13.539Z,102932.63
2022-11-12T05:52:41.184Z,102929.19
2022-11-12T05:55:09.536Z,102928.41
2022-11-12T05:57:37.146Z,102925.84
2022-11-12T06:00:07.634Z,102921.50
2022-11-12T06:02:35.355Z,102920.59
2022-11-12T06:05:03.178Z,102924.13
2022-11-12T06:07:30.980Z,102931.22
2022-11-12T06:09:58.671Z,102932.19
2022-11-12T06:12:26.313Z,102938.47
2022-11-12T06:14:53.941Z,102940.28
2022-11-12T06:17:23.085Z,102935.97
2022-11-12T06:19:50.841Z,102944.84
2022-11-12T06:22:18.577Z,102946.63
2022-11-12T06:24:46.494Z,102941.41
2022-11-12T06:27:14.148Z,102955.53
2022-11-12T06:29:41.836Z,102946.84
2022-11-12T06:32:09.551Z,102946.84
2022-11-12T06:34:38.614Z,102939.03
2022-11-12T06:37:06.395Z,102950.41
2022-11-12T06:39:34.075Z,102943.53
2022-11-12T06:42:02.024Z,102949.53
2022-11-12T06:44:29.838Z,102942.56
2022-11-12T06:46:57.521Z,102943.47
2022-11-12T06:49:25.229Z,102939.13
2022-11-12T06:51:54.279Z,102946.22
2022-11-12T06:54:21.978Z,102947.13
2022-11-12T06:56:49.687Z,102938.41
2022-11-12T06:59:17.556Z,102947.13
2022-11-12T07:01:45.481Z,102943.66
2022-11-12T07:04:13.228Z,102945.38
2022-11-12T07:06:40.929Z,102948.09
2022-11-12T07:09:10.050Z,102948.16
2022-11-12T07:11:37.739Z,102954.34
2022-11-12T07:14:06.562Z,102948.28
2022-11-12T07:16:34.656Z,102954.56
2022-11-12T07:19:02.450Z,102965.91
2022-11-12T07:21:30.097Z,102967.69
2022-11-12T07:23:57.791Z,102969.41
2022-11-12T07:26:28.507Z,102966.75
2022-11-12T07:28:56.688Z,102975.34
2022-11-12T07:31:25.809Z,102976.19
2022-11-12T07:33:53.532Z,102986.69
2022-11-12T07:36:22.344Z,102985.75
2022-11-12T07:38:52.743Z,102983.06
2022-11-12T07:41:21.584Z,102990.94
2022-11-12T07:43:52.199Z,102991.78
2022-11-12T07:46:22.371Z,102991.69
2022-11-12T07:48:50.228Z,102981.97
2022-11-12T07:51:19.641Z,102993.28
2022-11-12T07:53:48.134Z,102992.44
2022-11-12T07:56:17.550Z,103002.00
2022-11-12T07:58:45.968Z,103002.72
2022-11-12T08:01:24.468Z,102993.06
2022-11-12T08:03:52.532Z,103001.63
2022-11-12T08:06:20.257Z,103006.66
2022-11-12T08:08:47.932Z,103010.81
2022-11-12T08:11:15.613Z,103001.94
2022-11-12T08:13:43.249Z,103013.94
2022-11-12T08:16:10.873Z,103015.34
2022-11-12T08:18:39.922Z,103015.09
2022-11-12T08:21:08.835Z,103011.31
2022-11-12T08:23:36.464Z,103017.91
2022-11-12T08:26:05.583Z,103025.47
2022-11-12T08:28:34.626Z,103019.91
2022-11-12T08:31:05.090Z,103022.22
2022-11-12T08:33:32.712Z,103020.19
2022-11-12T08:36:03.833Z,103028.75
2022-11-12T08:38:31.653Z,103024.13
2022-11-12T08:41:01.656Z,103013.47
2022-11-12T08:43:29.236Z,103021.88
2022-11-12T08:45:59.145Z,103027.78
2022-11-12T08:48:27.354Z,103017.00
2022-11-12T08:50:55.288Z,103022.06
2022-11-12T08:53:25.188Z,103018.44
2022-11-12T08:55:54.631Z,103019.84
2022-11-12T08:58:22.666Z,103018.72
2022-11-12T09:00:50.956Z,103023.81
2022-11-12T09:03:20.150Z,103027.19
2022-11-12T09:05:48.317Z,103014.59
2022-11-12T09:08:18.426Z,103017.03
2022-11-12T09:10:47.797Z,103015.94
2022-11-12T09:13:15.442Z,103014.00
2022-11-12T09:15:43.074Z,103015.59
2022-11-12T09:18:13.374Z,103024.31
2022-11-12T09:20:41.176Z,103024.06
2022-11-12T09:23:10.695Z,103028.38
2022-11-12T09:25:38.802Z,103032.66
2022-11-12T09:28:12.778Z,103030.81
2022-11-12T09:30:46.370Z,103031.63
2022-11-12T09:33:14.405Z,103027.88
2022-11-12T09:35:42.072Z,103029.47
2022-11-12T09:38:09.686Z,103021.19
2022-11-12T09:40:56.559Z,103013.22
2022-11-12T09:43:28.520Z,103013.63
2022-11-12T09:46:21.492Z,103013.31
2022-11-12T09:48:49.223Z,103020.06
2022-11-12T09:51:23.212Z,103014.41
2022-11-12T09:53:56.247Z,103002.00
2022-11-12T09:56:25.141Z,103008.47
2022-11-12T09:58:54.942Z,103016.00
2022-11-12T10:01:26.069Z,103015.59
2022-11-12T10:04:00.318Z,103023.16
2022-11-12T10:06:32.264Z,103022.75
2022-11-12T10:09:05.922Z,103020.50
2022-11-12T10:12:04.201Z,103012.19
2022-11-12T10:14:47.470Z,103015.97
2022-11-12T10:17:19.062Z,103001.41
2022-11-12T10:19:55.091Z,103009.56
2022-11-12T10:22:34.195Z,103005.72
2022-11-12T10:25:14.170Z,103000.91
2022-11-12T10:27:43.368Z,103002.44
2022-11-12T10:30:17.918Z,103004.72
2022-11-12T10:32:46.993Z,103000.84
2022-11-12T10:35:17.519Z,102991.03
2022-11-12T10:37:49.092Z,102994.97
2022-11-12T10:40:29.430Z,102993.88
2022-11-12T10:42:59.519Z,102986.31
2022-11-12T10:45:28.899Z,102985.09
2022-11-12T10:47:57.127Z,102978.00
2022-11-12T10:50:26.693Z,102983.94
2022-11-12T10:52:59.848Z,102974.00
2022-11-12T10:55:29.023Z,102984.13
2022-11-12T10:58:23.829Z,102973.81
2022-11-12T11:00:58.836Z,102971.16
2022-11-12T11:03:28.612Z,102976.00
2022-11-12T11:05:59.403Z,102976.69
2022-11-12T11:08:36.459Z,102972.25
2022-11-12T11:11:26.237Z,102971.41
2022-11-12T11:13:56.132Z,102956.97
2022-11-12T11:16:26.606Z,102958.28
2022-11-12T11:18:56.933Z,102955.28
2022-11-12T11:21:53.739Z,102940.75
2022-11-12T11:24:37.887Z,102941.28
2022-11-12T11:27:09.421Z,102929.22
2022-11-12T11:29:49.462Z,102936.84
2022-11-12T11:32:36.063Z,102929.88
2022-11-12T11:35:15.915Z,102938.13
2022-11-12T11:37:48.109Z,102933.34
2022-11-12T11:40:22.392Z,102926.94
2022-11-12T11:43:04.418Z,102929.88
2022-11-12T11:45:37.763Z,102923.38
2022-11-12T11:48:14.030Z,102921.28
2022-11-12T11:50:44.222Z,102913.19
2022-11-12T11:53:20.458Z,102921.63
2022-11-12T11:55:56.013Z,102924.28
2022-11-12T11:58:41.127Z,102924.13
2022-11-12T12:01:13.716Z,102910.69
2022-11-12T12:03:53.436Z,102904.63
2022-11-12T12:06:23.779Z,102899.91
2022-11-12T12:09:00.788Z,102912.03
2022-11-12T12:11:32.161Z,102905.97
2022-11-12T12:14:28.047Z,102903.31
2022-11-12T12:17:03.194Z,102913.00
2022-11-12T12:19:41.392Z,102904.00
2022-11-12T12:22:12.771Z,102900.47
2022-11-12T12:24:47.549Z,102901.28
2022-11-12T12:27:19.239Z,102906.63
2022-11-12T12:29:50.023Z,102904.84
2022-11-12T12:32:24.135Z,102910.09
2022-11-12T12:34:58.027Z,102904.69
2022-11-12T12:37:28.665Z,102896.81
2022-11-12T12:40:04.374Z,102897.47
2022-11-12T12:42:37.517Z,102897.31
2022-11-12T12:45:23.104Z,102896.19
2022-11-12T12:47:51.080Z,102894.28
2022-11-12T12:50:22.431Z,102891.47
2022-11-12T12:53:42.920Z,102897.63
2022-11-12T12:56:44.179Z,102885.97
2022-11-12T12:59:21.147Z,102885.97
2022-11-12T13:01:56.388Z,102888.28
2022-11-12T13:04:52.513Z,102880.13
2022-11-12T13:07:42.908Z,102874.66
2022-11-12T13:10:52.588Z,102874.47
2022-11-12T13:13:32.596Z,102879.66
2022-11-12T13:16:01.911Z,102879.34
2022-11-12T13:19:00.280Z,102865.81
2022-11-12T13:21:28.189Z,102872.06
2022-11-12T13:24:11.016Z,102867.41
2022-11-12T13:26:53.319Z,102870.81
2022-11-12T13:29:27.194Z,102875.28
2022-11-12T13:32:27.850Z,102874.25
2022-11-12T13:35:40.274Z,102876.72
2022-11-12T13:38:15.513Z,102881.84
2022-11-12T13:40:46.688Z,102876.47
2022-11-12T13:43:33.767Z,102871.16
2022-11-12T13:46:23.656Z,102867.53
2022-11-12T13:48:58.761Z,102870.19
2022-11-12T13:51:31.406Z,102866.69
2022-11-12T13:53:59.243Z,102865.72
2022-11-12T13:56:30.376Z,102855.00
2022-11-12T13:59:09.742Z,102854.16
2022-11-12T14:03:18.456Z,102849.91
2022-11-12T14:05:48.426Z,102846.44
2022-11-12T14:08:35.182Z,102848.16
2022-11-12T14:11:26.257Z,102837.72
2022-11-12T14:14:02.622Z,102836.13
2022-11-12T14:16:39.468Z,102832.63
2022-11-12T14:19:24.189Z,102830.88
2022-11-12T14:22:02.691Z,102834.50
2022-11-12T14:24:33.413Z,102835.53
2022-11-12T14:27:01.092Z,102825.97
2022-11-12T14:29:34.185Z,102832.22
2022-11-12T14:32:03.881Z,102827.09
2022-11-12T14:34:34.215Z,102830.75
2022-11-12T14:37:02.456Z,102832.66
2022-11-12T14:39:30.832Z,102836.34
2022-11-12T14:44:10.878Z,102838.44
2022-11-12T14:46:46.188Z,102830.63
2022-11-12T14:49:19.436Z,102834.44
2022-11-12T14:51:50.416Z,102826.47
2022-11-12T14:54:25.407Z,102819.50
2022-11-12T14:56:53.269Z,102823.03
2022-11-12T14:59:22.349Z,102822.25
2022-11-12T15:02:37.377Z,102831.19
2022-11-12T15:05:01.995Z,102827.78
2022-11-12T15:07:32.274Z,102824.25
2022-11-12T15:09:59.865Z,102823.47
2022-11-12T15:12:30.123Z,102820.06
2022-11-12T15:15:09.631Z,102812.38
2022-11-12T15:17:38.192Z,102813.31
2022-11-12T15:20:07.828Z,102815.22
2022-11-12T15:22:35.834Z,102814.53
2022-11-12T15:25:18.101Z,102816.50
2022-11-12T15:27:45.746Z,102814.16
2022-11-12T15:30:20.976Z,102808.16
2022-11-12T15:32:48.615Z,102809.34
2022-11-12T15:35:37.931Z,102807.84
2022-11-12T15:38:07.855Z,102812.63
2022-11-12T15:40:43.937Z,102814.69
2022-11-12T15:43:14.683Z,102815.06
2022-11-12T15:46:16.494Z,102806.66
2022-11-12T15:48:44.323Z,102803.44
2022-11-12T15:51:12.539Z,102802.72
2022-11-12T15:53:40.100Z,102805.81
2022-11-12T15:56:10.038Z,102796.59
2022-11-12T15:58:40.374Z,102783.59
2022-11-12T16:01:07.961Z,102796.69
2022-11-12T16:03:37.046Z,102793.34
2022-11-12T16:06:09.013Z,102796.16
2022-11-12T16:08:37.222Z,102795.59
2022-11-12T16:11:24.908Z,102797.69
2022-11-12T16:13:52.607Z,102789.19
2022-11-12T16:16:20.167Z,102788.50
2022-11-12T16:18:49.183Z,102784.41
2022-11-12T16:21:20.670Z,102783.72
2022-11-12T16:23:48.656Z,102782.94
2022-11-12T16:26:21.166Z,102775.31
2022-11-12T16:28:48.753Z,102771.16
2022-11-12T16:31:16.352Z,102773.94
2022-11-12T16:33:44.961Z,102777.75
2022-11-12T16:36:15.942Z,102782.56
2022-11-12T16:38:43.737Z,102769.56
2022-11-12T16:41:12.875Z,102774.94
2022-11-12T16:43:40.661Z,102780.31
2022-11-12T16:46:15.294Z,102780.38
2022-11-12T16:48:42.959Z,102781.41
2022-11-12T16:51:18.407Z,102773.56
2022-11-12T16:53:46.564Z,102780.78
2022-11-12T16:56:15.428Z,102779.34
2022-11-12T16:58:43.191Z,102776.25
2022-11-12T17:01:14.616Z,102775.28
2022-11-12T17:03:42.846Z,102771.84
2022-11-12T17:06:10.464Z,102767.75
2022-11-12T17:08:39.691Z,102775.91
2022-11-12T17:11:09.672Z,102776.13
2022-11-12T17:13:38.630Z,102776.41
2022-11-12T17:16:07.066Z,102776.53
2022-11-12T17:18:35.175Z,102772.13
2022-11-12T17:21:10.886Z,102772.13
2022-11-12T17:23:40.161Z,102769.47
2022-11-12T17:26:09.196Z,102762.44
2022-11-12T17:28:37.432Z,102759.97
2022-11-12T17:31:06.833Z,102768.09
2022-11-12T17:33:38.604Z,102763.78
2022-11-12T17:36:07.804Z,102768.31
2022-11-12T17:38:35.509Z,102763.31
2022-11-12T17:41:05.039Z,102769.63
2022-11-12T17:43:32.902Z,102761.91
2022-11-12T17:46:00.842Z,102769.25
2022-11-12T17:48:28.907Z,102770.28
2022-11-12T17:51:06.008Z,102762.59
2022-11-12T17:53:33.706Z,102768.78
2022-11-12T17:56:01.603Z,102761.88
2022-11-12T18:00:07.147Z,102759.31
2022-11-12T18:02:34.786Z,102764.69
2022-11-12T18:05:02.463Z,102769.16
2022-11-12T18:07:30.375Z,102760.63
2022-11-12T18:09:58.290Z,102767.69
2022-11-12T18:12:25.960Z,102771.34
2022-11-12T18:14:53.585Z,102769.00
2022-11-12T18:17:22.673Z,102770.84
2022-11-12T18:19:50.321Z,102770.94
2022-11-12T18:22:19.449Z,102773.66
2022-11-12T18:24:48.141Z,102766.66
2022-11-12T18:27:15.944Z,102767.63
2022-11-12T18:29:45.600Z,102767.63
2022-11-12T18:32:13.640Z,102766.78
2022-11-12T18:34:45.091Z,102770.53
2022-11-12T18:37:13.137Z,102769.81
2022-11-12T18:39:41.032Z,102765.53
2022-11-12T18:42:08.689Z,102762.22
2022-11-12T18:44:37.521Z,102759.91
2022-11-12T18:47:05.240Z,102755.53
2022-11-12T18:50:15.991Z,102746.72
2022-11-12T18:52:43.657Z,102751.19
2022-11-12T18:55:11.520Z,102753.97
2022-11-12T18:57:39.241Z,102752.28
2022-11-12T19:00:07.545Z,102748.69
2022-11-12T19:02:35.251Z,102754.91
2022-11-12T19:05:02.944Z,102760.28
2022-11-12T19:07:32.091Z,102750.84
2022-11-12T19:09:59.892Z,102759.75
2022-11-12T19:12:27.633Z,102758.13
2022-11-12T19:14:55.430Z,102759.06
2022-11-12T19:17:25.990Z,102758.97
2022-11-12T19:19:56.022Z,102764.19
2022-11-12T19:22:23.687Z,102759.69
2022-11-12T19:24:53.070Z,102756.91
2022-11-12T19:27:20.905Z,102751.63
2022-11-12T19:29:49.553Z,102750.69
2022-11-12T19:32:17.164Z,102746.25
2022-11-12T19:34:44.820Z,102746.25
2022-11-12T19:37:32.424Z,102738.41
2022-11-12T19:40:01.523Z,102740.28
2022-11-12T19:42:29.209Z,102743.03
2022-11-12T19:44:56.852Z,102734.50
2022-11-12T19:47:24.633Z,102742.56
2022-11-12T19:49:52.285Z,102737.44
2022-11-12T19:52:19.981Z,102753.28
2022-11-12T19:54:47.748Z,102741.28
2022-11-12T19:57:16.794Z,102732.44
2022-11-12T19:59:44.472Z,102745.78
2022-11-12T20:02:12.815Z,102747.50
2022-11-12T20:04:40.574Z,102732.59
2022-11-12T20:07:09.238Z,102735.16
2022-11-12T20:09:37.269Z,102744.69
2022-11-12T20:12:06.033Z,102738.47
2022-11-12T20:14:35.261Z,102746.41
2022-11-12T20:17:02.966Z,102735.84
2022-11-12T20:19:30.672Z,102735.84
2022-11-12T20:21:58.361Z,102730.56
2022-11-12T20:24:26.054Z,102733.19
2022-11-12T20:26:53.765Z,102730.78
2022-11-12T20:29:21.476Z,102730.00
2022-11-12T20:31:50.487Z,102736.44
2022-11-12T20:34:18.153Z,102739.19
2022-11-12T20:36:45.855Z,102735.00
2022-11-12T20:39:13.554Z,102735.13
2022-11-12T20:41:41.146Z,102730.00
2022-11-12T20:44:09.119Z,102735.41
2022-11-12T20:46:36.773Z,102726.66
2022-11-12T20:49:06.523Z,102727.53
2022-11-12T20:51:35.077Z,102726.69
2022-11-12T20:54:03.263Z,102721.56
2022-11-12T20:56:31.884Z,102719.69
2022-11-12T20:59:00.179Z,102721.38
2022-11-12T21:01:29.085Z,102723.16
2022-11-12T21:03:58.029Z,102718.94
2022-11-12T21:06:29.226Z,102722.50
2022-11-12T21:08:59.777Z,102720.91
2022-11-12T21:11:27.424Z,102718.41
2022-11-12T21:13:55.304Z,102721.22
2022-11-12T21:16:22.933Z,102714.16
2022-11-12T21:18:50.561Z,102715.94
2022-11-12T21:21:21.139Z,102720.28
2022-11-12T21:23:51.291Z,102715.00
2022-11-12T21:26:20.334Z,102715.94
2022-11-12T21:28:49.350Z,102715.06
2022-11-12T21:31:18.276Z,102712.44
2022-11-12T21:33:45.927Z,102717.72
2022-11-12T21:36:16.567Z,102716.81
2022-11-12T21:38:44.584Z,102714.25
2022-11-12T21:41:14.974Z,102711.69
2022-11-12T21:43:44.630Z,102719.63
2022-11-12T21:46:14.402Z,102711.78
2022-11-12T21:48:42.174Z,102706.56
2022-11-12T21:51:11.629Z,102705.84
2022-11-12T21:53:39.814Z,102710.25
2022-11-12T21:56:10.628Z,102707.63
2022-11-12T21:58:39.861Z,102697.91
2022-11-12T22:01:08.882Z,102694.44
2022-11-12T22:03:36.637Z,102691.00
2022-11-12T22:06:04.483Z,102691.13
2022-11-12T22:08:32.239Z,102682.56
2022-11-12T22:11:03.845Z,102673.97
2022-11-12T22:13:31.669Z,102672.28
2022-11-12T22:16:05.236Z,102675.75
2022-11-12T22:18:34.195Z,102676.63
2022-11-12T22:21:03.554Z,102686.25
2022-11-12T22:23:32.967Z,102679.19
2022-11-12T22:26:00.958Z,102680.09
2022-11-12T22:28:29.041Z,102673.97
2022-11-12T22:30:57.050Z,102675.06
2022-11-12T22:33:26.090Z,102671.59
2022-11-12T22:35:53.673Z,102669.25
2022-11-12T22:38:21.359Z,102682.44
2022-11-12T22:40:49.027Z,102672.03
2022-11-12T22:43:16.614Z,102667.69
2022-11-12T22:45:44.241Z,102672.16
2022-11-12T22:48:11.903Z,102667.81
2022-11-12T22:50:41.151Z,102673.22
2022-11-12T22:53:08.883Z,102675.00
2022-11-12T22:55:36.622Z,102664.44
2022-11-12T22:58:04.300Z,102665.31
2022-11-12T23:00:33.280Z,102655.69
2022-11-12T23:03:00.973Z,102657.53
2022-11-12T23:05:28.573Z,102656.75
2022-11-12T23:07:57.806Z,102653.31
2022-11-12T23:10:25.437Z,102653.38
2022-11-12T23:12:53.131Z,102647.41
2022-11-12T23:15:20.757Z,102651.75
2022-11-12T23:17:48.444Z,102650.81
2022-11-12T23:20:16.701Z,102648.19
2022-11-12T23:22:44.332Z,102643.69
2022-11-12T23:25:13.428Z,102638.41
2022-11-12T23:27:41.228Z,102635.94
2022-11-12T23:30:09.800Z,102645.53
2022-11-12T23:32:37.403Z,102643.75
2022-11-12T23:35:06.009Z,102635.94
2022-11-12T23:37:33.686Z,102640.28
2022-11-12T23:40:01.361Z,102640.28
2022-11-12T23:42:30.444Z,102637.56
2022-11-12T23:44:58.129Z,102628.81
2022-11-12T23:47:25.744Z,102639.28
2022-11-12T23:49:53.485Z,102630.44
2022-11-12T23:52:21.156Z,102627.81
2022-11-12T23:54:48.806Z,102631.28
2022-11-12T23:57:16.573Z,102627.75
2022-11-12T23:59:46.103Z,102625.16
